createdAt,value
2022-09-10T00:00:16.629Z,50.64
2022-09-10T00:05:23.830Z,50.83
2022-09-10T00:10:31.001Z,50.82
2022-09-10T00:15:38.193Z,50.90
2022-09-10T00:20:45.387Z,51.03
2022-09-10T00:25:52.563Z,51.13
2022-09-10T00:30:59.790Z,51.26
2022-09-10T00:36:06.954Z,51.38
2022-09-10T00:41:14.146Z,51.46
2022-09-10T00:46:21.416Z,51.53
2022-09-10T00:51:28.613Z,51.56
2022-09-10T00:56:35.795Z,51.66
2022-09-10T01:01:43.113Z,51.76
2022-09-10T01:06:50.264Z,51.85
2022-09-10T01:11:57.437Z,51.96
2022-09-10T01:17:04.613Z,51.98
2022-09-10T01:22:11.904Z,52.07
2022-09-10T01:27:19.088Z,52.14
2022-09-10T01:32:26.279Z,52.16
2022-09-10T01:37:33.490Z,52.25
2022-09-10T01:42:40.636Z,52.34
2022-09-10T01:47:47.858Z,52.39
2022-09-10T01:52:55.020Z,52.41
2022-09-10T01:58:02.215Z,52.51
2022-09-10T02:03:09.385Z,52.44
2022-09-10T02:08:16.596Z,52.42
2022-09-10T02:13:23.786Z,52.44
2022-09-10T02:18:31.079Z,52.44
2022-09-10T02:23:38.287Z,52.46
2022-09-10T02:28:45.501Z,52.47
2022-09-10T02:33:52.739Z,52.46
2022-09-10T02:38:59.961Z,52.47
2022-09-10T02:44:07.186Z,52.48
2022-09-10T02:49:14.358Z,52.51
2022-09-10T02:54:21.568Z,52.48
2022-09-10T02:59:28.733Z,52.37
2022-09-10T03:04:35.890Z,52.26
2022-09-10T03:09:43.116Z,52.24
2022-09-10T03:14:50.285Z,52.14
2022-09-10T03:19:57.459Z,52.14
2022-09-10T03:25:04.680Z,52.21
2022-09-10T03:30:11.871Z,52.21
2022-09-10T03:35:19.114Z,52.16
2022-09-10T03:40:26.317Z,52.29
2022-09-10T03:45:33.634Z,52.43
2022-09-10T03:50:40.791Z,52.46
2022-09-10T03:55:48.501Z,52.57
2022-09-10T04:00:55.794Z,52.64
2022-09-10T04:06:03.022Z,52.66
2022-09-10T04:11:10.256Z,52.66
2022-09-10T04:16:17.468Z,52.69
2022-09-10T04:21:24.608Z,52.72
2022-09-10T04:26:31.851Z,52.67
2022-09-10T04:31:39.095Z,52.72
2022-09-10T04:36:46.240Z,52.70
2022-09-10T04:41:53.648Z,52.67
2022-09-10T04:47:00.799Z,52.75
2022-09-10T04:52:07.994Z,52.74
2022-09-10T04:57:15.193Z,52.76
2022-09-10T05:02:22.448Z,52.82
2022-09-10T05:07:29.550Z,52.80
2022-09-10T05:12:36.754Z,52.79
2022-09-10T05:17:44.531Z,52.77
2022-09-10T05:22:51.775Z,52.72
2022-09-10T05:27:59.015Z,52.71
2022-09-10T05:33:07.217Z,52.70
2022-09-10T05:38:13.476Z,52.74
2022-09-10T05:43:20.679Z,52.73
2022-09-10T05:48:27.831Z,52.77
2022-09-10T05:53:35.033Z,52.78
2022-09-10T05:58:42.249Z,52.79
2022-09-10T06:03:49.445Z,52.75
2022-09-10T06:08:56.685Z,52.72
2022-09-10T06:14:03.894Z,52.80
2022-09-10T06:19:11.045Z,52.81
2022-09-10T06:24:18.219Z,52.77
2022-09-10T06:29:25.431Z,52.68
2022-09-10T06:34:32.637Z,52.64
2022-09-10T06:39:39.839Z,52.62
2022-09-10T06:44:47.037Z,52.51
2022-09-10T06:49:54.153Z,52.55
2022-09-10T06:55:01.338Z,52.45
2022-09-10T07:00:08.586Z,52.42
2022-09-10T07:05:15.744Z,52.47
2022-09-10T07:10:22.904Z,52.52
2022-09-10T07:15:30.233Z,52.55
2022-09-10T07:20:37.389Z,52.61
2022-09-10T07:25:44.563Z,52.68
2022-09-10T07:30:51.903Z,52.57
2022-09-10T07:35:59.005Z,52.57
2022-09-10T07:41:06.328Z,52.54
2022-09-10T07:46:13.645Z,52.56
2022-09-10T07:51:21.059Z,52.77
2022-09-10T07:56:28.307Z,53.19
2022-09-10T08:01:35.670Z,53.15
2022-09-10T08:06:42.765Z,53.05
2022-09-10T08:11:49.995Z,52.86
2022-09-10T08:16:57.250Z,52.88
2022-09-10T08:22:04.501Z,52.82
2022-09-10T08:27:11.715Z,52.70
2022-09-10T08:32:18.981Z,52.53
2022-09-10T08:37:26.171Z,52.45
2022-09-10T08:42:33.325Z,52.31
2022-09-10T08:47:40.531Z,52.23
2022-09-10T08:52:47.697Z,52.06
2022-09-10T08:57:54.886Z,51.99
2022-09-10T09:03:02.138Z,51.93
2022-09-10T09:08:09.327Z,52.51
2022-09-10T09:13:16.516Z,52.31
2022-09-10T09:18:23.706Z,52.17
2022-09-10T09:23:30.865Z,52.25
2022-09-10T09:28:38.095Z,51.91
2022-09-10T09:33:45.253Z,51.99
2022-09-10T09:38:52.442Z,51.83
2022-09-10T09:43:59.640Z,51.94
2022-09-10T09:49:06.831Z,52.00
2022-09-10T09:54:46.755Z,52.19
2022-09-10T09:59:21.253Z,52.04
2022-09-10T10:04:28.530Z,51.90
2022-09-10T10:09:35.663Z,51.88
2022-09-10T10:14:42.879Z,52.21
2022-09-10T10:19:50.036Z,52.34
2022-09-10T10:24:57.182Z,52.49
2022-09-10T10:30:04.352Z,52.61
2022-09-10T10:35:11.612Z,52.70
2022-09-10T10:40:18.824Z,52.65
2022-09-10T10:45:26.072Z,52.69
2022-09-10T10:50:33.305Z,52.76
2022-09-10T10:55:40.527Z,52.84
2022-09-10T11:00:47.746Z,52.88
2022-09-10T11:05:54.975Z,52.80
2022-09-10T11:11:02.233Z,52.89
2022-09-10T11:16:09.479Z,52.83
2022-09-10T11:21:16.665Z,52.81
2022-09-10T11:26:23.838Z,52.70
2022-09-10T11:31:31.047Z,52.48
2022-09-10T11:36:38.305Z,52.28
2022-09-10T11:41:45.470Z,52.14
2022-09-10T11:46:52.704Z,51.93
2022-09-10T11:51:59.910Z,52.04
2022-09-10T11:57:07.146Z,52.07
2022-09-10T12:02:14.386Z,52.14
2022-09-10T12:07:21.633Z,51.57
2022-09-10T12:12:28.800Z,51.70
2022-09-10T12:17:36.024Z,51.46
2022-09-10T12:22:43.273Z,50.67
2022-09-10T12:27:50.425Z,50.56
2022-09-10T12:32:57.759Z,50.84
2022-09-10T12:38:05.045Z,50.80
2022-09-10T12:43:12.225Z,50.73
2022-09-10T12:48:21.971Z,50.87
2022-09-10T12:53:26.733Z,50.89
2022-09-10T12:58:33.937Z,51.03
2022-09-10T13:03:41.288Z,51.14
2022-09-10T13:08:48.427Z,51.00
2022-09-10T13:13:55.570Z,51.16
2022-09-10T13:19:02.751Z,51.40
2022-09-10T13:24:09.992Z,51.66
2022-09-10T13:29:17.165Z,50.97
2022-09-10T13:34:24.426Z,50.84
2022-09-10T13:39:31.708Z,51.12
2022-09-10T13:44:38.893Z,51.32
2022-09-10T13:49:46.139Z,51.81
2022-09-10T13:54:53.454Z,52.25
2022-09-10T14:00:00.788Z,52.30
2022-09-10T14:05:07.854Z,52.32
2022-09-10T14:10:15.076Z,52.07
2022-09-10T14:15:22.318Z,51.91
2022-09-10T14:20:29.515Z,51.67
2022-09-10T14:25:36.752Z,51.51
2022-09-10T14:30:43.944Z,51.56
2022-09-10T14:35:51.115Z,51.45
2022-09-10T14:40:58.625Z,51.37
2022-09-10T14:46:05.896Z,50.74
2022-09-10T14:51:12.987Z,50.48
2022-09-10T14:56:20.191Z,50.47
2022-09-10T15:01:27.435Z,50.06
2022-09-10T15:06:34.561Z,50.20
2022-09-10T15:11:41.802Z,50.37
2022-09-10T15:16:48.976Z,50.09
2022-09-10T15:21:56.188Z,49.85
2022-09-10T15:27:03.382Z,50.29
2022-09-10T15:32:10.575Z,50.37
2022-09-10T15:37:17.821Z,51.03
2022-09-10T15:42:25.089Z,50.42
2022-09-10T15:47:32.276Z,51.22
2022-09-10T15:52:39.511Z,51.51
2022-09-10T15:57:46.748Z,52.10
2022-09-10T16:02:54.090Z,51.50
2022-09-10T16:08:01.130Z,52.12
2022-09-10T16:13:08.451Z,51.41
2022-09-10T16:18:15.667Z,51.96
2022-09-10T16:23:22.842Z,52.13
2022-09-10T16:28:30.297Z,52.84
2022-09-10T16:33:37.490Z,53.09
2022-09-10T16:38:44.723Z,53.60
2022-09-10T16:43:51.984Z,54.11
2022-09-10T16:48:59.171Z,54.40
2022-09-10T16:54:06.415Z,54.67
2022-09-10T16:59:13.607Z,54.44
2022-09-10T17:04:25.957Z,54.18
2022-09-10T17:09:28.024Z,54.82
2022-09-10T17:14:35.256Z,54.76
2022-09-10T17:19:42.509Z,55.02
2022-09-10T17:24:49.715Z,54.86
2022-09-10T17:29:56.931Z,54.83
2022-09-10T17:35:04.073Z,54.51
2022-09-10T17:40:11.270Z,54.51
2022-09-10T17:45:18.461Z,54.02
2022-09-10T17:50:25.624Z,53.82
2022-09-10T17:55:33.771Z,53.26
2022-09-10T18:00:40.062Z,53.12
2022-09-10T18:05:47.309Z,53.51
2022-09-10T18:10:54.491Z,53.80
2022-09-10T18:16:02.950Z,54.10
2022-09-10T18:21:10.398Z,54.56
2022-09-10T18:26:18.007Z,54.32
2022-09-10T18:31:25.399Z,54.38
2022-09-10T18:36:32.623Z,54.65
2022-09-10T18:41:40.237Z,54.82
2022-09-10T18:46:47.631Z,55.01
2022-09-10T18:51:54.955Z,54.99
2022-09-10T18:57:02.563Z,54.43
2022-09-10T19:02:10.199Z,54.22
2022-09-10T19:07:17.696Z,53.85
2022-09-10T19:12:25.011Z,53.71
2022-09-10T19:17:32.638Z,53.41
2022-09-10T19:22:39.896Z,53.28
2022-09-10T19:27:47.639Z,53.31
2022-09-10T19:32:55.277Z,53.22
2022-09-10T19:38:15.803Z,53.07
2022-09-10T19:43:10.272Z,53.15
2022-09-10T19:48:17.812Z,52.85
2022-09-10T19:53:25.301Z,52.63
2022-09-10T19:58:33.836Z,52.49
2022-09-10T20:03:41.082Z,51.96
2022-09-10T20:08:48.561Z,51.45
2022-09-10T20:13:56.165Z,51.23
2022-09-10T20:19:03.572Z,51.36
2022-09-10T20:24:10.813Z,51.25
2022-09-10T20:29:17.986Z,51.06
2022-09-10T20:34:25.205Z,51.06
2022-09-10T20:39:32.389Z,50.96
2022-09-10T20:44:39.577Z,50.86
2022-09-10T20:49:46.806Z,50.78
2022-09-10T20:54:53.983Z,50.77
2022-09-10T21:00:01.172Z,50.51
2022-09-10T21:05:08.462Z,50.45
2022-09-10T21:10:15.636Z,50.42
2022-09-10T21:15:22.822Z,50.36
2022-09-10T21:20:30.056Z,50.40
2022-09-10T21:25:37.292Z,50.38
2022-09-10T21:30:44.498Z,50.22
2022-09-10T21:35:51.672Z,50.13
2022-09-10T21:40:58.877Z,50.32
2022-09-10T21:46:06.129Z,50.45
2022-09-10T21:51:13.300Z,50.29
2022-09-10T21:56:20.474Z,50.14
2022-09-10T22:01:27.816Z,50.06
2022-09-10T22:06:34.922Z,50.06
2022-09-10T22:11:42.085Z,50.22
2022-09-10T22:16:49.294Z,50.32
2022-09-10T22:21:56.533Z,50.14
2022-09-10T22:27:03.749Z,50.05
2022-09-10T22:32:10.901Z,50.03
2022-09-10T22:37:18.127Z,49.92
2022-09-10T22:42:25.277Z,49.93
2022-09-10T22:47:32.512Z,49.86
2022-09-10T22:52:39.740Z,49.94
2022-09-10T22:57:46.885Z,50.17
2022-09-10T23:02:54.128Z,50.26
2022-09-10T23:08:01.366Z,50.16
2022-09-10T23:13:08.567Z,50.03
2022-09-10T23:18:15.742Z,50.04
2022-09-10T23:23:22.975Z,49.80
2022-09-10T23:28:30.115Z,49.84
2022-09-10T23:33:37.359Z,50.19
2022-09-10T23:38:44.576Z,50.17
2022-09-10T23:43:51.760Z,50.23
2022-09-10T23:48:58.982Z,50.39
2022-09-10T23:54:06.176Z,50.46
2022-09-10T23:59:13.383Z,50.52
